Terminal Aerodrome Forecast
Issued by NWS

Home | Current Version | Previous Version | Text Only | Print | Product List | Glossary On
Versions: 1 2 3 4 5 6 7 8 9 10 11 12
000
FTAK31 PAFA 172342
TAFAFA
TAF
PAFA 172342Z 1800/1906 VRB05KT P6SM VCSH SCT050 BKN100
      TEMPO 1800/1803 -SHRA SCT050 BKN070
     FM180300 04005KT P6SM BKN100
     FM180900 VRB03KT P6SM SCT250
     FM182000 VRB03KT P6SM SCT050 BKN100=

USA.gov is the U.S. government's official web portal to all federal, state and local government web resources and services.